createdAt,value
2018-04-02T00:02:11.666Z,2.60
2018-04-02T00:04:40.060Z,2.60
2018-04-02T00:07:07.617Z,2.60
2018-04-02T00:09:35.108Z,2.50
2018-04-02T00:12:02.651Z,2.50
2018-04-02T00:14:30.173Z,2.50
2018-04-02T00:16:57.712Z,2.50
2018-04-02T00:19:25.203Z,2.40
2018-04-02T00:21:52.761Z,2.40
2018-04-02T00:24:21.416Z,2.50
2018-04-02T00:26:49.081Z,2.50
2018-04-02T00:29:17.466Z,2.50
2018-04-02T00:31:45.558Z,2.50
2018-04-02T00:34:13.834Z,2.70
2018-04-02T00:36:42.107Z,2.80
2018-04-02T00:39:09.618Z,2.80
2018-04-02T00:41:37.112Z,2.90
2018-04-02T00:44:04.848Z,3.00
2018-04-02T00:46:32.442Z,3.00
2018-04-02T00:48:59.946Z,3.00
2018-04-02T00:51:27.635Z,3.00
2018-04-02T00:53:55.230Z,3.00
2018-04-02T00:56:22.885Z,3.00
2018-04-02T00:58:50.371Z,3.00
2018-04-02T01:01:17.901Z,2.90
2018-04-02T01:03:45.434Z,2.80
2018-04-02T01:06:12.951Z,2.70
2018-04-02T01:08:40.451Z,2.60
2018-04-02T01:11:08.078Z,2.50
2018-04-02T01:13:35.584Z,2.40
2018-04-02T01:16:03.203Z,2.30
2018-04-02T01:18:30.689Z,2.20
2018-04-02T01:20:58.207Z,2.20
2018-04-02T01:23:25.924Z,2.10
2018-04-02T01:25:53.413Z,2.10
2018-04-02T01:28:21.843Z,2.00
2018-04-02T01:30:49.543Z,2.00
2018-04-02T01:33:17.939Z,2.00
2018-04-02T01:35:45.502Z,1.90
2018-04-02T01:38:12.996Z,1.90
2018-04-02T01:40:40.732Z,1.90
2018-04-02T01:43:08.263Z,1.90
2018-04-02T01:45:36.546Z,1.90
2018-04-02T01:48:05.451Z,2.00
2018-04-02T01:50:32.995Z,2.00
2018-04-02T01:53:01.283Z,2.10
2018-04-02T01:55:28.777Z,2.10
2018-04-02T01:57:56.919Z,2.10
2018-04-02T02:00:24.710Z,2.20
2018-04-02T02:02:52.265Z,2.20
2018-04-02T02:05:19.813Z,2.10
2018-04-02T02:07:47.498Z,2.10
2018-04-02T02:10:16.017Z,2.10
2018-04-02T02:12:43.597Z,2.20
2018-04-02T02:15:11.602Z,2.20
2018-04-02T02:17:39.298Z,2.20
2018-04-02T02:20:06.816Z,2.30
2018-04-02T02:22:34.327Z,2.20
2018-04-02T02:25:02.005Z,2.10
2018-04-02T02:27:29.675Z,2.00
2018-04-02T02:29:57.207Z,1.90
2018-04-02T02:32:24.821Z,1.90
2018-04-02T02:34:52.364Z,1.80
2018-04-02T02:37:19.881Z,1.80
2018-04-02T02:39:47.464Z,1.70
2018-04-02T02:42:15.855Z,1.60
2018-04-02T02:44:43.418Z,1.60
2018-04-02T02:47:10.960Z,1.50
2018-04-02T02:49:38.519Z,1.50
2018-04-02T02:52:07.084Z,1.50
2018-04-02T02:54:34.970Z,1.50
2018-04-02T02:57:02.452Z,1.40
2018-04-02T02:59:30.186Z,1.40
2018-04-02T03:01:58.500Z,1.30
2018-04-02T03:04:25.998Z,1.30
2018-04-02T03:06:54.055Z,1.30
2018-04-02T03:09:22.062Z,1.20
2018-04-02T03:11:49.578Z,1.20
2018-04-02T03:14:17.121Z,1.20
2018-04-02T03:16:44.793Z,1.20
2018-04-02T03:19:12.425Z,1.20
2018-04-02T03:21:40.731Z,1.10
2018-04-02T03:24:08.540Z,1.10
2018-04-02T03:26:36.523Z,1.10
2018-04-02T03:29:04.639Z,1.10
2018-04-02T03:31:32.177Z,1.00
2018-04-02T03:34:00.438Z,0.90
2018-04-02T03:36:27.950Z,0.90
2018-04-02T03:38:55.466Z,0.90
2018-04-02T03:41:23.743Z,0.90
2018-04-02T03:43:51.264Z,0.90
2018-04-02T03:46:18.835Z,0.90
2018-04-02T03:48:46.355Z,0.80
2018-04-02T03:51:13.855Z,0.80
2018-04-02T03:53:41.358Z,0.80
2018-04-02T03:56:08.852Z,0.80
2018-04-02T03:58:36.386Z,0.80
2018-04-02T04:01:03.927Z,0.80
2018-04-02T04:03:31.579Z,0.80
2018-04-02T04:05:59.122Z,0.70
2018-04-02T04:08:26.808Z,0.70
2018-04-02T04:10:54.310Z,0.70
2018-04-02T04:13:22.432Z,0.70
2018-04-02T04:15:49.982Z,0.70
2018-04-02T04:18:17.502Z,0.70
2018-04-02T04:20:45.242Z,0.70
2018-04-02T04:23:12.752Z,0.80
2018-04-02T04:25:40.272Z,0.80
2018-04-02T04:28:07.892Z,0.90
2018-04-02T04:30:35.539Z,0.90
2018-04-02T04:33:04.817Z,0.90
2018-04-02T04:35:32.312Z,0.90
2018-04-02T04:38:01.215Z,0.90
2018-04-02T04:40:28.718Z,0.90
2018-04-02T04:42:56.325Z,0.90
2018-04-02T04:45:24.771Z,0.90
2018-04-02T04:47:52.658Z,0.90
2018-04-02T04:50:20.787Z,0.90
2018-04-02T04:52:48.332Z,1.00
2018-04-02T04:55:15.870Z,1.10
2018-04-02T04:57:44.317Z,1.30
2018-04-02T05:00:12.622Z,1.30
2018-04-02T05:02:41.199Z,1.70
2018-04-02T05:05:09.202Z,1.60
2018-04-02T05:07:36.724Z,1.80
2018-04-02T05:10:04.223Z,1.90
2018-04-02T05:12:31.759Z,2.00
2018-04-02T05:14:59.277Z,2.10
2018-04-02T05:17:27.593Z,2.30
2018-04-02T05:19:55.451Z,2.40
2018-04-02T05:22:22.968Z,2.50
2018-04-02T05:24:50.520Z,2.50
2018-04-02T05:27:18.071Z,2.60
2018-04-02T05:29:45.570Z,2.70
2018-04-02T05:32:13.861Z,2.80
2018-04-02T05:34:41.384Z,2.80
2018-04-02T05:37:08.882Z,2.90
2018-04-02T05:39:37.159Z,3.10
2018-04-02T05:42:04.711Z,3.10
2018-04-02T05:44:32.987Z,3.40
2018-04-02T05:47:00.495Z,3.30
2018-04-02T05:49:28.454Z,3.50
2018-04-02T05:51:56.152Z,3.70
2018-04-02T05:54:24.037Z,3.70
2018-04-02T05:56:51.835Z,3.70
2018-04-02T05:59:19.371Z,3.80
2018-04-02T06:01:47.977Z,4.10
2018-04-02T06:04:15.500Z,4.10
2018-04-02T06:06:43.083Z,4.20
2018-04-02T06:09:10.750Z,4.40
2018-04-02T06:11:39.101Z,4.50
2018-04-02T06:14:06.688Z,4.60
2018-04-02T06:16:34.968Z,4.90
2018-04-02T06:19:03.241Z,4.90
2018-04-02T06:21:32.025Z,5.10
2018-04-02T06:24:00.405Z,5.30
2018-04-02T06:26:28.919Z,5.30
2018-04-02T06:28:56.403Z,5.50
2018-04-02T06:31:23.979Z,5.70
2018-04-02T06:33:52.243Z,5.90
2018-04-02T06:36:19.772Z,6.10
2018-04-02T06:38:47.506Z,6.30
2018-04-02T06:41:15.158Z,6.40
2018-04-02T06:43:43.022Z,6.50
2018-04-02T06:46:11.458Z,6.80
2018-04-02T06:48:39.062Z,6.80
2018-04-02T06:51:08.434Z,7.10
2018-04-02T06:53:37.357Z,7.30
2018-04-02T06:56:04.892Z,7.20
2018-04-02T06:58:33.204Z,7.40
2018-04-02T07:01:01.471Z,7.70
2018-04-02T07:03:29.724Z,7.70
2018-04-02T07:05:57.250Z,7.70
2018-04-02T07:08:24.838Z,7.60
2018-04-02T07:10:52.477Z,8.00
2018-04-02T07:13:19.966Z,8.50
2018-04-02T07:15:48.450Z,8.90
2018-04-02T07:18:16.742Z,10.20
2018-04-02T07:20:44.808Z,10.10
2018-04-02T07:23:12.826Z,10.70
2018-04-02T07:25:40.340Z,11.30
2018-04-02T07:28:08.005Z,11.90
2018-04-02T07:30:35.773Z,12.20
2018-04-02T07:33:04.255Z,12.30
2018-04-02T07:35:31.763Z,12.30
2018-04-02T07:37:59.427Z,12.60
2018-04-02T07:40:26.944Z,13.30
2018-04-02T07:42:54.606Z,13.70
2018-04-02T07:45:22.915Z,13.80
2018-04-02T07:47:50.424Z,13.80
2018-04-02T07:50:18.687Z,13.40
2018-04-02T07:52:46.191Z,13.30
2018-04-02T07:55:13.696Z,12.60
2018-04-02T07:57:41.218Z,11.80
2018-04-02T08:00:08.816Z,11.50
2018-04-02T08:02:36.591Z,11.50
2018-04-02T08:05:04.887Z,11.90
2018-04-02T08:07:32.374Z,11.90
2018-04-02T08:10:00.540Z,12.10
2018-04-02T08:12:28.076Z,12.10
2018-04-02T08:14:55.663Z,12.00
2018-04-02T08:17:23.247Z,11.80
2018-04-02T08:19:50.783Z,11.50
2018-04-02T08:22:18.329Z,11.20
2018-04-02T08:24:46.045Z,11.60
2018-04-02T08:27:13.547Z,12.30
2018-04-02T08:29:41.049Z,12.60
2018-04-02T08:32:08.923Z,12.80
2018-04-02T08:34:36.469Z,12.90
2018-04-02T08:37:04.132Z,12.50
2018-04-02T08:39:31.626Z,12.20
2018-04-02T08:41:59.155Z,12.00
2018-04-02T08:44:26.956Z,11.90
2018-04-02T08:46:54.530Z,11.80
2018-04-02T08:49:22.087Z,11.70
2018-04-02T08:51:49.623Z,11.60
2018-04-02T08:54:18.767Z,11.50
2018-04-02T08:56:47.523Z,11.30
2018-04-02T08:59:15.107Z,11.30
2018-04-02T09:01:42.714Z,11.10
2018-04-02T09:04:10.295Z,10.90
2018-04-02T09:06:37.809Z,10.90
2018-04-02T09:09:05.331Z,11.00
2018-04-02T09:11:33.018Z,11.00
2018-04-02T09:14:00.712Z,10.80
2018-04-02T09:16:28.437Z,10.40
2018-04-02T09:18:55.992Z,10.40
2018-04-02T09:21:23.629Z,10.80
2018-04-02T09:23:51.127Z,11.00
2018-04-02T09:26:18.683Z,11.00
2018-04-02T09:28:46.180Z,10.80
2018-04-02T09:31:13.727Z,10.50
2018-04-02T09:33:41.275Z,10.20
2018-04-02T09:36:08.826Z,10.00
2018-04-02T09:38:37.154Z,9.70
2018-04-02T09:41:04.725Z,9.70
2018-04-02T09:43:32.481Z,9.70
2018-04-02T09:46:00.064Z,9.70
2018-04-02T09:48:28.525Z,9.10
2018-04-02T09:50:56.492Z,9.10
2018-04-02T09:53:24.043Z,9.10
2018-04-02T09:55:51.577Z,9.20
2018-04-02T09:58:19.256Z,9.10
2018-04-02T10:00:46.861Z,9.10
2018-04-02T10:03:14.415Z,9.20
2018-04-02T10:05:41.946Z,9.20
2018-04-02T10:08:09.475Z,9.30
2018-04-02T10:10:37.176Z,9.40
2018-04-02T10:13:04.746Z,9.40
2018-04-02T10:15:32.897Z,9.50
2018-04-02T10:18:02.351Z,9.60
2018-04-02T10:20:30.046Z,9.60
2018-04-02T10:22:57.543Z,9.60
2018-04-02T10:25:26.587Z,9.60
2018-04-02T10:27:54.218Z,9.60
2018-04-02T10:30:22.191Z,9.50
2018-04-02T10:32:51.503Z,9.50
2018-04-02T10:35:21.136Z,9.50
2018-04-02T10:37:49.692Z,9.50
2018-04-02T10:40:17.287Z,9.50
2018-04-02T10:42:45.147Z,9.60
2018-04-02T10:45:13.094Z,9.70
2018-04-02T10:47:40.818Z,9.70
2018-04-02T10:50:08.428Z,9.80
2018-04-02T10:52:36.002Z,9.70
2018-04-02T10:55:03.531Z,9.70
2018-04-02T10:57:31.047Z,9.80
2018-04-02T10:59:58.650Z,10.00
2018-04-02T11:02:26.927Z,10.00
2018-04-02T11:04:54.483Z,9.90
2018-04-02T11:07:23.117Z,10.10
2018-04-02T11:09:51.480Z,10.10
2018-04-02T11:12:19.286Z,10.10
2018-04-02T11:14:46.890Z,10.10
2018-04-02T11:17:14.436Z,10.20
2018-04-02T11:19:42.062Z,10.30
2018-04-02T11:22:09.687Z,10.20
2018-04-02T11:24:37.240Z,10.20
2018-04-02T11:27:04.811Z,10.20
2018-04-02T11:29:32.508Z,10.30
2018-04-02T11:32:00.121Z,10.30
2018-04-02T11:34:28.503Z,10.40
2018-04-02T11:36:56.159Z,10.50
2018-04-02T11:39:23.767Z,10.60
2018-04-02T11:41:51.434Z,10.70
2018-04-02T11:44:18.967Z,10.60
2018-04-02T11:46:46.546Z,10.50
2018-04-02T11:49:14.143Z,10.40
2018-04-02T11:51:42.591Z,10.70
2018-04-02T11:54:10.249Z,10.70
2018-04-02T11:56:37.849Z,10.80
2018-04-02T11:59:06.367Z,11.00
2018-04-02T12:01:33.869Z,11.30
2018-04-02T12:04:01.569Z,11.70
2018-04-02T12:06:29.250Z,11.90
2018-04-02T12:08:56.898Z,11.90
2018-04-02T12:11:25.924Z,11.90
2018-04-02T12:13:54.140Z,11.90
2018-04-02T12:16:21.818Z,11.90
2018-04-02T12:18:50.142Z,11.90
2018-04-02T12:21:17.708Z,11.90
2018-04-02T12:23:45.365Z,11.80
2018-04-02T12:26:12.995Z,11.90
2018-04-02T12:28:41.492Z,12.40
2018-04-02T12:31:10.064Z,12.40
2018-04-02T12:33:37.694Z,12.60
2018-04-02T12:36:06.114Z,12.20
2018-04-02T12:38:33.699Z,12.20
2018-04-02T12:41:02.645Z,11.90
2018-04-02T12:43:30.494Z,11.60
2018-04-02T12:45:59.331Z,11.60
2018-04-02T12:48:26.944Z,11.40
2018-04-02T12:50:55.162Z,11.40
2018-04-02T12:53:22.798Z,11.50
2018-04-02T12:55:50.478Z,11.60
2018-04-02T12:58:18.028Z,11.60
2018-04-02T13:00:46.073Z,11.60
2018-04-02T13:03:14.292Z,11.60
2018-04-02T13:05:41.832Z,11.50
2018-04-02T13:08:09.319Z,11.50
2018-04-02T13:10:37.095Z,11.40
2018-04-02T13:13:04.624Z,11.40
2018-04-02T13:15:32.150Z,11.40
2018-04-02T13:18:01.147Z,11.70
2018-04-02T13:20:28.786Z,11.60
2018-04-02T13:22:56.923Z,11.80
2018-04-02T13:25:25.258Z,11.90
2018-04-02T13:27:53.556Z,12.30
2018-04-02T13:30:21.234Z,12.30
2018-04-02T13:32:49.010Z,12.50
2018-04-02T13:35:16.527Z,12.70
2018-04-02T13:37:45.143Z,12.70
2018-04-02T13:40:12.744Z,12.70
2018-04-02T13:42:40.413Z,12.50
2018-04-02T13:45:07.953Z,12.30
2018-04-02T13:47:35.519Z,12.20
2018-04-02T13:50:03.993Z,12.20
2018-04-02T13:52:31.712Z,12.20
2018-04-02T13:55:00.290Z,12.10
2018-04-02T13:57:28.638Z,11.90
2018-04-02T13:59:57.027Z,11.90
2018-04-02T14:02:24.809Z,11.90
2018-04-02T14:04:52.563Z,12.10
2018-04-02T14:07:20.059Z,12.20
2018-04-02T14:09:47.570Z,12.10
2018-04-02T14:12:16.380Z,12.10
2018-04-02T14:14:44.859Z,12.00
2018-04-02T14:17:13.355Z,11.90
2018-04-02T14:19:40.868Z,11.90
2018-04-02T14:22:08.430Z,11.80
2018-04-02T14:24:36.013Z,11.80
2018-04-02T14:27:03.528Z,11.80
2018-04-02T14:29:31.063Z,11.90
2018-04-02T14:31:58.592Z,11.90
2018-04-02T14:34:26.942Z,11.70
2018-04-02T14:36:54.776Z,11.80
2018-04-02T14:39:22.950Z,11.80
2018-04-02T14:41:50.482Z,11.70
2018-04-02T14:44:18.290Z,11.60
2018-04-02T14:46:45.818Z,11.50
2018-04-02T14:49:13.346Z,11.70
2018-04-02T14:51:41.383Z,11.90
2018-04-02T14:54:09.129Z,12.00
2018-04-02T14:56:36.742Z,12.20
2018-04-02T14:59:05.039Z,12.00
2018-04-02T15:01:33.391Z,11.90
2018-04-02T15:04:02.406Z,11.70
2018-04-02T15:06:30.109Z,11.70
2018-04-02T15:08:57.620Z,11.60
2018-04-02T15:11:25.127Z,11.50
2018-04-02T15:13:52.720Z,11.30
2018-04-02T15:16:21.658Z,11.20
2018-04-02T15:18:49.488Z,11.10
2018-04-02T15:21:17.034Z,11.00
2018-04-02T15:23:44.849Z,10.90
2018-04-02T15:26:12.477Z,10.90
2018-04-02T15:28:41.130Z,11.00
2018-04-02T15:31:08.750Z,11.20
2018-04-02T15:33:37.052Z,11.60
2018-04-02T15:36:04.596Z,11.60
2018-04-02T15:38:32.176Z,11.70
2018-04-02T15:40:59.844Z,11.90
2018-04-02T15:43:27.439Z,12.10
2018-04-02T15:45:54.996Z,12.30
2018-04-02T15:48:22.611Z,12.40
2018-04-02T15:50:50.196Z,12.50
2018-04-02T15:53:17.711Z,12.40
2018-04-02T15:55:45.252Z,12.40
2018-04-02T15:58:13.614Z,12.50
2018-04-02T16:00:41.351Z,12.40
2018-04-02T16:03:09.697Z,12.30
2018-04-02T16:05:37.285Z,12.30
2018-04-02T16:08:04.887Z,12.20
2018-04-02T16:10:32.713Z,12.20
2018-04-02T16:13:00.249Z,12.20
2018-04-02T16:15:27.741Z,12.20
2018-04-02T16:17:55.306Z,12.10
2018-04-02T16:20:23.141Z,12.00
2018-04-02T16:22:50.684Z,11.90
2018-04-02T16:25:19.056Z,11.80
2018-04-02T16:27:46.694Z,11.80
2018-04-02T16:30:14.403Z,11.70
2018-04-02T16:32:41.962Z,11.70
2018-04-02T16:35:09.472Z,11.70
2018-04-02T16:37:36.981Z,11.70
2018-04-02T16:40:04.616Z,11.70
2018-04-02T16:42:32.312Z,11.60
2018-04-02T16:44:59.848Z,11.60
2018-04-02T16:47:28.176Z,11.40
2018-04-02T16:49:55.686Z,11.50
2018-04-02T16:52:23.239Z,11.40
2018-04-02T16:54:51.851Z,11.30
2018-04-02T16:57:19.362Z,11.30
2018-04-02T16:59:46.905Z,11.20
2018-04-02T17:02:14.523Z,11.10
2018-04-02T17:04:42.062Z,11.00
2018-04-02T17:07:10.319Z,10.80
2018-04-02T17:09:38.220Z,10.80
2018-04-02T17:12:06.683Z,10.70
2018-04-02T17:14:34.237Z,10.70
2018-04-02T17:17:01.955Z,10.70
2018-04-02T17:19:29.478Z,10.70
2018-04-02T17:21:58.329Z,10.70
2018-04-02T17:24:25.911Z,10.70
2018-04-02T17:26:54.569Z,10.60
2018-04-02T17:29:22.259Z,10.60
2018-04-02T17:31:50.271Z,10.60
2018-04-02T17:34:17.799Z,10.60
2018-04-02T17:36:46.095Z,10.50
2018-04-02T17:39:13.613Z,10.50
2018-04-02T17:41:41.152Z,10.40
2018-04-02T17:44:09.569Z,10.40
2018-04-02T17:46:37.103Z,10.30
2018-04-02T17:49:05.379Z,10.20
2018-04-02T17:51:32.999Z,10.20
2018-04-02T17:54:00.891Z,10.20
2018-04-02T17:56:28.466Z,10.10
2018-04-02T17:58:56.082Z,10.10
2018-04-02T18:01:23.852Z,10.10
2018-04-02T18:03:51.453Z,10.00
2018-04-02T18:06:20.036Z,10.00
2018-04-02T18:08:47.864Z,10.00
2018-04-02T18:11:15.424Z,10.00
2018-04-02T18:13:42.941Z,10.00
2018-04-02T18:16:10.484Z,10.00
2018-04-02T18:18:37.994Z,10.00
2018-04-02T18:21:05.690Z,10.00
2018-04-02T18:23:33.228Z,9.90
2018-04-02T18:26:00.757Z,9.90
2018-04-02T18:28:28.295Z,9.90
2018-04-02T18:30:56.509Z,9.90
2018-04-02T18:33:24.690Z,9.90
2018-04-02T18:35:52.546Z,9.80
2018-04-02T18:38:20.442Z,9.70
2018-04-02T18:40:48.165Z,9.60
2018-04-02T18:43:15.760Z,9.50
2018-04-02T18:45:43.345Z,9.50
2018-04-02T18:48:11.094Z,9.50
2018-04-02T18:50:38.652Z,9.60
2018-04-02T18:53:06.152Z,9.60
2018-04-02T18:55:33.832Z,9.60
2018-04-02T18:58:02.846Z,9.60
2018-04-02T19:00:30.458Z,9.60
2018-04-02T19:02:58.024Z,9.60
2018-04-02T19:05:25.659Z,9.60
2018-04-02T19:07:53.218Z,9.50
2018-04-02T19:10:21.481Z,9.40
2018-04-02T19:12:49.454Z,9.30
2018-04-02T19:15:17.169Z,9.30
2018-04-02T19:17:45.864Z,9.30
2018-04-02T19:20:14.281Z,9.40
2018-04-02T19:22:41.808Z,9.40
2018-04-02T19:25:10.107Z,9.40
2018-04-02T19:27:37.656Z,9.40
2018-04-02T19:30:05.174Z,9.40
2018-04-02T19:32:33.558Z,9.40
2018-04-02T19:35:01.919Z,9.40
2018-04-02T19:37:29.863Z,9.40
2018-04-02T19:39:58.407Z,9.40
2018-04-02T19:42:25.939Z,9.40
2018-04-02T19:44:53.467Z,9.30
2018-04-02T19:47:21.024Z,9.30
2018-04-02T19:49:49.742Z,9.30
2018-04-02T19:52:18.485Z,9.30
2018-04-02T19:54:46.391Z,9.20
2018-04-02T19:57:13.954Z,9.20
2018-04-02T19:59:41.567Z,9.10
2018-04-02T20:02:09.106Z,9.10
2018-04-02T20:04:36.918Z,9.10
2018-04-02T20:07:04.499Z,9.10
2018-04-02T20:09:32.065Z,9.10
2018-04-02T20:11:59.597Z,9.10
2018-04-02T20:14:27.577Z,9.00
2018-04-02T20:16:55.214Z,9.10
2018-04-02T20:19:22.781Z,9.10
2018-04-02T20:21:50.565Z,9.20
2018-04-02T20:24:18.259Z,9.20
2018-04-02T20:26:46.617Z,9.20
2018-04-02T20:29:16.000Z,9.20
2018-04-02T20:31:43.665Z,9.10
2018-04-02T20:34:11.416Z,9.20
2018-04-02T20:36:39.999Z,9.20
2018-04-02T20:39:07.695Z,9.20
2018-04-02T20:41:35.603Z,9.20
2018-04-02T20:44:03.145Z,9.20
2018-04-02T20:46:32.222Z,9.10
2018-04-02T20:48:59.824Z,9.20
2018-04-02T20:51:27.451Z,9.20
2018-04-02T20:53:55.109Z,9.20
2018-04-02T20:56:22.656Z,9.20
2018-04-02T20:58:50.209Z,9.20
2018-04-02T21:01:17.809Z,9.20
2018-04-02T21:03:46.096Z,9.20
2018-04-02T21:06:14.502Z,9.10
2018-04-02T21:08:42.069Z,9.10
2018-04-02T21:11:10.343Z,9.10
2018-04-02T21:13:37.966Z,9.10
2018-04-02T21:16:06.325Z,9.00
2018-04-02T21:18:35.932Z,9.00
2018-04-02T21:21:03.972Z,8.90
2018-04-02T21:23:31.516Z,9.00
2018-04-02T21:25:59.852Z,9.00
2018-04-02T21:28:27.440Z,8.90
2018-04-02T21:30:55.815Z,8.80
2018-04-02T21:33:23.426Z,8.80
2018-04-02T21:35:52.390Z,8.70
2018-04-02T21:38:20.052Z,8.70
2018-04-02T21:40:48.398Z,8.60
2018-04-02T21:43:15.909Z,8.60
2018-04-02T21:45:43.681Z,8.70
2018-04-02T21:48:11.279Z,8.70
2018-04-02T21:50:38.831Z,8.60
2018-04-02T21:53:06.401Z,8.60
2018-04-02T21:55:35.372Z,8.60
2018-04-02T21:58:02.919Z,8.50
2018-04-02T22:00:30.580Z,8.50
2018-04-02T22:02:59.213Z,8.50
2018-04-02T22:05:28.388Z,8.50
2018-04-02T22:08:13.469Z,8.50
2018-04-02T22:10:41.909Z,8.50
2018-04-02T22:13:11.798Z,8.50
2018-04-02T22:15:40.339Z,8.40
2018-04-02T22:18:08.838Z,8.50
2018-04-02T22:20:36.508Z,8.50
2018-04-02T22:23:04.783Z,8.50
2018-04-02T22:25:32.363Z,8.50
2018-04-02T22:27:59.899Z,8.50
2018-04-02T22:30:28.217Z,8.50
2018-04-02T22:32:55.868Z,8.50
2018-04-02T22:35:23.561Z,8.50
2018-04-02T22:37:51.304Z,8.50
2018-04-02T22:40:18.830Z,8.50
2018-04-02T22:42:47.948Z,8.50
2018-04-02T22:45:15.512Z,8.50
2018-04-02T22:47:43.064Z,8.40
2018-04-02T22:50:10.625Z,8.40
2018-04-02T22:52:38.217Z,8.40
2018-04-02T22:55:05.752Z,8.40
2018-04-02T22:57:33.518Z,8.40
2018-04-02T23:00:01.050Z,8.40
2018-04-02T23:02:29.484Z,8.40
2018-04-02T23:04:57.816Z,8.50
2018-04-02T23:07:25.481Z,8.40
2018-04-02T23:09:53.018Z,8.40
2018-04-02T23:12:20.692Z,8.40
2018-04-02T23:14:49.093Z,8.40
2018-04-02T23:17:16.627Z,8.30
2018-04-02T23:19:44.937Z,8.30
2018-04-02T23:22:18.536Z,8.30
2018-04-02T23:24:46.096Z,8.30
2018-04-02T23:27:14.068Z,8.30
2018-04-02T23:29:41.634Z,8.30
2018-04-02T23:32:09.165Z,8.30
2018-04-02T23:34:38.103Z,8.30
2018-04-02T23:37:05.655Z,8.30
2018-04-02T23:39:33.283Z,8.30
2018-04-02T23:42:00.786Z,8.40
2018-04-02T23:44:28.499Z,8.40
2018-04-02T23:46:56.347Z,8.30
2018-04-02T23:49:23.883Z,8.40
2018-04-02T23:51:51.533Z,8.40
2018-04-02T23:54:19.073Z,8.30
2018-04-02T23:56:46.599Z,8.40
2018-04-02T23:59:14.107Z,8.40
